AEN898 EDDH-LEBB
Flight info
| Callsign | AEN898 |
|---|---|
| Flight time | 2h 8m |
| Altitude | 36000 |
| Route | HABFU1C HABFU Y348 MAWEQ DCT RASCA DCT FAMEN/N0452F350 DCT BSN DCT BUZIK DCT RESMI UN857 DISAK DCT ARKIP DCT ARNAV DCT LMG DCT UVELI DCT OSMOB DCT VAVIX/N0408F230 DCT BTZ DCT URUNA P181 SSN L176 CEGAM |
| Aircraft | A320/M-SDE3FGHIRWY/LB1 |
Departure
| Time | 2026-04-20 16:41 |
|---|---|
| Airport | Hamburg Helmut Schmidt Airport (EDDH) |
Arrival
| Time | 2026-04-20 18:49 |
|---|---|
| Airport | Bilbao Airport (LEBB) |
| Time | Latitude | Longitude | Altitude | Speed | Heading |
|---|---|---|---|---|---|
| 2026-04-20 15:57 | 53.63331 | 10.00354 | 49 ft | 0 kts | 86° |
| 2026-04-20 16:26 | 53.63330 | 10.00324 | 48 ft | 4 kts | 86° |
| 2026-04-20 16:27 | 53.63328 | 10.00281 | 46 ft | 2 kts | 86° |
| 2026-04-20 16:27 | 53.63329 | 10.00246 | 42 ft | 4 kts | 130° |
| 2026-04-20 16:27 | 53.63348 | 10.00231 | 45 ft | 4 kts | 176° |
| 2026-04-20 16:27 | 53.63360 | 10.00229 | 43 ft | 0 kts | 176° |
| 2026-04-20 16:32 | 53.63353 | 10.00230 | 46 ft | 4 kts | 176° |
| 2026-04-20 16:32 | 53.63294 | 10.00236 | 48 ft | 13 kts | 176° |
| 2026-04-20 16:32 | 53.63183 | 10.00250 | 48 ft | 17 kts | 176° |
| 2026-04-20 16:33 | 53.63082 | 10.00262 | 48 ft | 12 kts | 181° |
| 2026-04-20 16:33 | 53.63011 | 10.00202 | 48 ft | 11 kts | 213° |
| 2026-04-20 16:33 | 53.62945 | 10.00130 | 48 ft | 15 kts | 213° |
| 2026-04-20 16:33 | 53.62852 | 10.00019 | 46 ft | 16 kts | 218° |
| 2026-04-20 16:34 | 53.62758 | 9.99918 | 46 ft | 16 kts | 208° |
| 2026-04-20 16:34 | 53.62656 | 9.99813 | 46 ft | 19 kts | 227° |
| 2026-04-20 16:34 | 53.62622 | 9.99614 | 43 ft | 17 kts | 259° |
| 2026-04-20 16:34 | 53.62601 | 9.99428 | 47 ft | 15 kts | 259° |
| 2026-04-20 16:35 | 53.62580 | 9.99242 | 47 ft | 18 kts | 259° |
| 2026-04-20 16:35 | 53.62553 | 9.99008 | 47 ft | 21 kts | 259° |
| 2026-04-20 16:35 | 53.62526 | 9.98767 | 47 ft | 20 kts | 259° |
| 2026-04-20 16:35 | 53.62501 | 9.98553 | 47 ft | 18 kts | 259° |
| 2026-04-20 16:36 | 53.62480 | 9.98360 | 47 ft | 16 kts | 259° |
| 2026-04-20 16:36 | 53.62456 | 9.98186 | 47 ft | 15 kts | 252° |
| 2026-04-20 16:36 | 53.62409 | 9.98044 | 47 ft | 13 kts | 230° |
| 2026-04-20 16:36 | 53.62345 | 9.97919 | 47 ft | 17 kts | 230° |
| 2026-04-20 16:37 | 53.62259 | 9.97744 | 47 ft | 20 kts | 231° |
| 2026-04-20 16:37 | 53.62181 | 9.97559 | 45 ft | 17 kts | 254° |
| 2026-04-20 16:37 | 53.62202 | 9.97417 | 43 ft | 0 kts | 310° |
| 2026-04-20 16:39 | 53.62221 | 9.97385 | 42 ft | 8 kts | 319° |
| 2026-04-20 16:39 | 53.62293 | 9.97346 | 40 ft | 13 kts | 4° |
| 2026-04-20 16:39 | 53.62340 | 9.97411 | 40 ft | 8 kts | 51° |
| 2026-04-20 16:40 | 53.62346 | 9.97423 | 40 ft | 0 kts | 50° |
| 2026-04-20 16:40 | 53.62394 | 9.97521 | 40 ft | 39 kts | 50° |
| 2026-04-20 16:40 | 53.62720 | 9.98182 | 43 ft | 105 kts | 50° |
| 2026-04-20 16:41 | 53.63295 | 9.99346 | 134 ft | 146 kts | 51° |
| 2026-04-20 16:41 | 53.63917 | 10.00643 | 867 ft | 143 kts | 49° |
| 2026-04-20 16:41 | 53.64569 | 10.01959 | 1497 ft | 152 kts | 46° |
| 2026-04-20 16:41 | 53.65292 | 10.03408 | 1835 ft | 170 kts | 47° |
| 2026-04-20 16:42 | 53.66091 | 10.05008 | 2196 ft | 188 kts | 48° |
| 2026-04-20 16:42 | 53.66964 | 10.06769 | 2683 ft | 200 kts | 48° |
| 2026-04-20 16:42 | 53.67857 | 10.08593 | 3452 ft | 203 kts | 48° |
| 2026-04-20 16:42 | 53.68912 | 10.10175 | 4167 ft | 205 kts | 24° |
| 2026-04-20 16:43 | 53.70305 | 10.10580 | 4921 ft | 208 kts | 352° |
| 2026-04-20 16:43 | 53.71666 | 10.09618 | 5406 ft | 227 kts | 321° |
| 2026-04-20 16:43 | 53.72616 | 10.07303 | 5746 ft | 254 kts | 300° |
| 2026-04-20 16:43 | 53.73429 | 10.04584 | 6465 ft | 263 kts | 298° |
| 2026-04-20 16:44 | 53.74247 | 10.01788 | 7261 ft | 268 kts | 297° |
| 2026-04-20 16:44 | 53.74786 | 9.98743 | 8026 ft | 276 kts | 278° |
| 2026-04-20 16:44 | 53.74692 | 9.95465 | 8803 ft | 285 kts | 258° |
| 2026-04-20 16:44 | 53.74005 | 9.92292 | 9598 ft | 291 kts | 248° |
| 2026-04-20 16:45 | 53.73198 | 9.89131 | 10365 ft | 295 kts | 248° |
| 2026-04-20 16:45 | 53.72363 | 9.85839 | 10676 ft | 317 kts | 249° |
| 2026-04-20 16:45 | 53.71466 | 9.82297 | 10862 ft | 340 kts | 248° |
| 2026-04-20 16:45 | 53.70510 | 9.78535 | 11227 ft | 354 kts | 248° |
| 2026-04-20 16:46 | 53.69532 | 9.74688 | 11871 ft | 359 kts | 249° |
| 2026-04-20 16:46 | 53.68541 | 9.70807 | 12574 ft | 362 kts | 249° |
| 2026-04-20 16:46 | 53.67532 | 9.66844 | 13302 ft | 364 kts | 249° |
| 2026-04-20 16:46 | 53.66475 | 9.62945 | 14008 ft | 369 kts | 243° |
| 2026-04-20 16:47 | 53.65020 | 9.59373 | 14620 ft | 374 kts | 231° |
| 2026-04-20 16:47 | 53.63126 | 9.56316 | 15245 ft | 379 kts | 219° |
| 2026-04-20 16:47 | 53.60900 | 9.53929 | 15882 ft | 381 kts | 210° |
| 2026-04-20 16:47 | 53.58565 | 9.51791 | 16527 ft | 383 kts | 210° |
| 2026-04-20 16:48 | 53.56220 | 9.49647 | 17161 ft | 384 kts | 209° |
| 2026-04-20 16:48 | 53.53868 | 9.47501 | 17779 ft | 386 kts | 210° |
| 2026-04-20 16:48 | 53.51504 | 9.45346 | 18379 ft | 388 kts | 210° |
| 2026-04-20 16:48 | 53.49124 | 9.43178 | 18897 ft | 390 kts | 209° |
| 2026-04-20 16:49 | 53.46736 | 9.41004 | 19401 ft | 391 kts | 209° |
| 2026-04-20 16:49 | 53.44339 | 9.38823 | 19909 ft | 393 kts | 208° |
| 2026-04-20 16:49 | 53.41933 | 9.36639 | 20416 ft | 394 kts | 208° |
| 2026-04-20 16:49 | 53.39511 | 9.34445 | 20913 ft | 396 kts | 208° |
| 2026-04-20 16:50 | 53.37903 | 9.32991 | 21232 ft | 397 kts | 207° |
| 2026-04-20 16:50 | 53.35467 | 9.30789 | 21703 ft | 399 kts | 207° |
| 2026-04-20 16:50 | 53.32972 | 9.28737 | 22190 ft | 400 kts | 200° |
| 2026-04-20 16:50 | 53.30319 | 9.27368 | 22658 ft | 400 kts | 191° |
| 2026-04-20 16:51 | 53.27577 | 9.26534 | 23116 ft | 402 kts | 189° |
| 2026-04-20 16:51 | 53.24815 | 9.25719 | 23561 ft | 404 kts | 189° |
| 2026-04-20 16:51 | 53.22043 | 9.24897 | 23947 ft | 406 kts | 189° |
| 2026-04-20 16:51 | 53.19251 | 9.24065 | 24292 ft | 408 kts | 189° |
| 2026-04-20 16:52 | 53.16449 | 9.23225 | 24628 ft | 411 kts | 189° |
| 2026-04-20 16:52 | 53.13627 | 9.22382 | 24964 ft | 413 kts | 189° |
| 2026-04-20 16:52 | 53.10802 | 9.21548 | 25292 ft | 415 kts | 189° |
| 2026-04-20 16:52 | 53.07946 | 9.20710 | 25614 ft | 417 kts | 189° |
| 2026-04-20 16:53 | 53.05076 | 9.19866 | 25932 ft | 420 kts | 189° |
| 2026-04-20 16:53 | 53.02192 | 9.19014 | 26227 ft | 423 kts | 189° |
| 2026-04-20 16:53 | 52.99286 | 9.18158 | 26555 ft | 425 kts | 189° |
| 2026-04-20 16:53 | 52.96381 | 9.17176 | 26846 ft | 428 kts | 195° |
| 2026-04-20 16:54 | 52.93571 | 9.15521 | 27122 ft | 431 kts | 204° |
| 2026-04-20 16:54 | 52.90892 | 9.13249 | 27388 ft | 434 kts | 207° |
| 2026-04-20 16:54 | 52.88222 | 9.10900 | 27675 ft | 436 kts | 208° |
| 2026-04-20 16:54 | 52.85534 | 9.08541 | 27947 ft | 439 kts | 208° |
| 2026-04-20 16:55 | 52.82826 | 9.06169 | 28208 ft | 441 kts | 208° |
| 2026-04-20 16:55 | 52.80106 | 9.03793 | 28469 ft | 443 kts | 208° |
| 2026-04-20 16:55 | 52.77373 | 9.01407 | 28738 ft | 446 kts | 208° |
| 2026-04-20 16:55 | 52.74626 | 8.99015 | 28981 ft | 448 kts | 208° |
| 2026-04-20 16:56 | 52.71861 | 8.96611 | 29221 ft | 450 kts | 208° |
| 2026-04-20 16:56 | 52.69084 | 8.94200 | 29469 ft | 453 kts | 209° |
| 2026-04-20 16:56 | 52.66300 | 8.91778 | 29818 ft | 452 kts | 210° |
| 2026-04-20 16:56 | 52.63519 | 8.89357 | 30173 ft | 452 kts | 210° |
| 2026-04-20 16:57 | 52.60735 | 8.86940 | 30466 ft | 452 kts | 210° |
| 2026-04-20 16:57 | 52.57953 | 8.84533 | 30754 ft | 452 kts | 210° |
| 2026-04-20 16:57 | 52.55167 | 8.82128 | 31048 ft | 452 kts | 210° |
| 2026-04-20 16:57 | 52.52381 | 8.79729 | 31349 ft | 452 kts | 210° |
| 2026-04-20 16:58 | 52.49599 | 8.77337 | 31638 ft | 451 kts | 210° |
| 2026-04-20 16:58 | 52.46818 | 8.74944 | 31936 ft | 451 kts | 210° |
| 2026-04-20 16:58 | 52.44039 | 8.72552 | 32235 ft | 451 kts | 210° |
| 2026-04-20 16:58 | 52.41266 | 8.70165 | 32536 ft | 450 kts | 210° |
| 2026-04-20 16:59 | 52.38498 | 8.67789 | 32837 ft | 450 kts | 210° |
| 2026-04-20 16:59 | 52.35724 | 8.65417 | 33147 ft | 449 kts | 210° |
| 2026-04-20 16:59 | 52.32963 | 8.63063 | 33449 ft | 449 kts | 210° |
| 2026-04-20 16:59 | 52.30199 | 8.60690 | 33748 ft | 447 kts | 212° |
| 2026-04-20 17:00 | 52.25344 | 8.54526 | 34324 ft | 440 kts | 230° |
| 2026-04-20 17:00 | 52.23327 | 8.50781 | 34566 ft | 439 kts | 231° |
| 2026-04-20 17:00 | 52.21325 | 8.47022 | 34791 ft | 439 kts | 231° |
| 2026-04-20 17:01 | 52.19316 | 8.43272 | 35025 ft | 439 kts | 231° |
| 2026-04-20 17:01 | 52.17304 | 8.39532 | 35250 ft | 439 kts | 231° |
| 2026-04-20 17:01 | 52.15294 | 8.35801 | 35450 ft | 439 kts | 231° |
| 2026-04-20 17:01 | 52.13281 | 8.32064 | 35667 ft | 439 kts | 231° |
| 2026-04-20 17:02 | 52.11266 | 8.28331 | 35868 ft | 439 kts | 231° |
| 2026-04-20 17:02 | 52.09250 | 8.24600 | 36074 ft | 439 kts | 231° |
| 2026-04-20 17:02 | 52.07236 | 8.20877 | 36183 ft | 440 kts | 231° |
| 2026-04-20 17:03 | 52.03184 | 8.13406 | 36205 ft | 440 kts | 231° |
| 2026-04-20 17:03 | 51.99131 | 8.05955 | 36206 ft | 440 kts | 231° |
| 2026-04-20 17:04 | 51.95075 | 7.98506 | 36209 ft | 440 kts | 231° |
| 2026-04-20 17:04 | 51.91011 | 7.91077 | 36209 ft | 440 kts | 231° |
| 2026-04-20 17:05 | 51.86946 | 7.83676 | 36208 ft | 440 kts | 231° |
| 2026-04-20 17:05 | 51.82868 | 7.76281 | 36208 ft | 440 kts | 231° |
| 2026-04-20 17:06 | 51.78789 | 7.68897 | 36203 ft | 440 kts | 231° |
| 2026-04-20 17:06 | 51.74684 | 7.61478 | 36202 ft | 440 kts | 231° |
| 2026-04-20 17:07 | 51.70606 | 7.54122 | 36202 ft | 440 kts | 231° |
| 2026-04-20 17:07 | 51.66524 | 7.46790 | 36202 ft | 439 kts | 231° |
| 2026-04-20 17:08 | 51.62464 | 7.39528 | 36200 ft | 439 kts | 231° |
| 2026-04-20 17:08 | 51.58352 | 7.32186 | 36200 ft | 438 kts | 231° |
| 2026-04-20 17:09 | 51.54265 | 7.24920 | 36197 ft | 438 kts | 231° |
| 2026-04-20 17:09 | 51.50171 | 7.17655 | 36194 ft | 438 kts | 231° |
| 2026-04-20 17:10 | 51.46078 | 7.10401 | 36195 ft | 438 kts | 231° |
| 2026-04-20 17:10 | 51.41985 | 7.03165 | 36194 ft | 438 kts | 231° |
| 2026-04-20 17:11 | 51.37879 | 6.95943 | 36196 ft | 438 kts | 231° |
| 2026-04-20 17:11 | 51.33766 | 6.88725 | 36189 ft | 439 kts | 231° |
| 2026-04-20 17:12 | 51.29649 | 6.81532 | 36189 ft | 437 kts | 231° |
| 2026-04-20 17:12 | 51.25545 | 6.74373 | 36191 ft | 438 kts | 231° |
| 2026-04-20 17:13 | 51.21428 | 6.67206 | 36192 ft | 438 kts | 231° |
| 2026-04-20 17:13 | 51.17310 | 6.60055 | 36193 ft | 438 kts | 231° |
| 2026-04-20 17:14 | 51.13175 | 6.52914 | 36191 ft | 438 kts | 231° |
| 2026-04-20 17:14 | 51.09040 | 6.45793 | 36184 ft | 438 kts | 231° |
| 2026-04-20 17:15 | 51.04901 | 6.38668 | 36179 ft | 438 kts | 231° |
| 2026-04-20 17:15 | 51.00760 | 6.31563 | 36182 ft | 438 kts | 231° |
| 2026-04-20 17:16 | 50.96614 | 6.24466 | 36184 ft | 438 kts | 231° |
| 2026-04-20 17:16 | 50.92458 | 6.17385 | 36186 ft | 438 kts | 231° |
| 2026-04-20 17:17 | 50.88305 | 6.10328 | 36190 ft | 438 kts | 231° |
| 2026-04-20 17:17 | 50.84146 | 6.03278 | 36186 ft | 438 kts | 231° |
| 2026-04-20 17:18 | 50.79990 | 5.96236 | 36183 ft | 438 kts | 231° |
| 2026-04-20 17:18 | 50.75831 | 5.89218 | 36180 ft | 437 kts | 231° |
| 2026-04-20 17:19 | 50.71664 | 5.82211 | 36186 ft | 437 kts | 231° |
| 2026-04-20 17:19 | 50.67497 | 5.75221 | 36178 ft | 437 kts | 231° |
| 2026-04-20 17:20 | 50.63330 | 5.68244 | 36175 ft | 437 kts | 231° |
| 2026-04-20 17:20 | 50.59159 | 5.61292 | 36178 ft | 437 kts | 231° |
| 2026-04-20 17:21 | 50.54984 | 5.54352 | 36180 ft | 436 kts | 231° |
| 2026-04-20 17:21 | 50.50807 | 5.47421 | 36176 ft | 436 kts | 231° |
| 2026-04-20 17:22 | 50.46627 | 5.40513 | 36173 ft | 436 kts | 231° |
| 2026-04-20 17:22 | 50.42445 | 5.33627 | 36169 ft | 436 kts | 231° |
| 2026-04-20 17:23 | 50.38263 | 5.26756 | 36164 ft | 436 kts | 231° |
| 2026-04-20 17:23 | 50.34085 | 5.19883 | 36162 ft | 435 kts | 231° |
| 2026-04-20 17:24 | 50.29904 | 5.13041 | 36155 ft | 435 kts | 231° |
| 2026-04-20 17:24 | 50.25716 | 5.06215 | 36156 ft | 435 kts | 231° |
| 2026-04-20 17:25 | 50.21535 | 4.99403 | 36153 ft | 434 kts | 231° |
| 2026-04-20 17:25 | 50.17349 | 4.92608 | 36156 ft | 434 kts | 231° |
| 2026-04-20 17:26 | 50.13196 | 4.85799 | 36160 ft | 432 kts | 233° |
| 2026-04-20 17:26 | 50.09306 | 4.78697 | 36164 ft | 430 kts | 236° |
| 2026-04-20 17:27 | 50.05531 | 4.71486 | 36161 ft | 430 kts | 236° |
| 2026-04-20 17:27 | 50.01708 | 4.64332 | 36169 ft | 430 kts | 235° |
| 2026-04-20 17:28 | 49.97837 | 4.57252 | 36167 ft | 430 kts | 235° |
| 2026-04-20 17:28 | 49.94050 | 4.50096 | 36197 ft | 427 kts | 237° |
| 2026-04-20 17:29 | 49.91005 | 4.44006 | 36183 ft | 426 kts | 238° |
| 2026-04-20 17:29 | 49.87390 | 4.36747 | 36180 ft | 425 kts | 237° |
| 2026-04-20 17:30 | 49.83734 | 4.29552 | 36179 ft | 425 kts | 237° |
| 2026-04-20 17:30 | 49.80048 | 4.22390 | 36170 ft | 425 kts | 237° |
| 2026-04-20 17:31 | 49.76361 | 4.15239 | 36159 ft | 425 kts | 237° |
| 2026-04-20 17:31 | 49.72678 | 4.08083 | 36163 ft | 426 kts | 237° |
| 2026-04-20 17:32 | 49.68991 | 4.00915 | 36159 ft | 426 kts | 237° |
| 2026-04-20 17:32 | 49.65279 | 3.93744 | 36153 ft | 427 kts | 237° |
| 2026-04-20 17:33 | 49.61568 | 3.86609 | 36147 ft | 428 kts | 237° |
| 2026-04-20 17:33 | 49.57845 | 3.79452 | 36144 ft | 428 kts | 237° |
| 2026-04-20 17:34 | 49.54116 | 3.72302 | 36141 ft | 429 kts | 237° |
| 2026-04-20 17:34 | 49.50364 | 3.65148 | 36136 ft | 430 kts | 237° |
| 2026-04-20 17:35 | 49.46608 | 3.57984 | 36139 ft | 430 kts | 237° |
| 2026-04-20 17:35 | 49.42839 | 3.50827 | 36138 ft | 431 kts | 237° |
| 2026-04-20 17:36 | 49.39060 | 3.43679 | 36141 ft | 431 kts | 237° |
| 2026-04-20 17:36 | 49.35277 | 3.36531 | 36146 ft | 432 kts | 237° |
| 2026-04-20 17:37 | 49.31490 | 3.29384 | 36151 ft | 432 kts | 237° |
| 2026-04-20 17:37 | 49.27696 | 3.22238 | 36150 ft | 432 kts | 237° |
| 2026-04-20 17:38 | 49.23893 | 3.15108 | 36148 ft | 432 kts | 237° |
| 2026-04-20 17:38 | 49.20084 | 3.07993 | 36145 ft | 432 kts | 236° |
| 2026-04-20 17:39 | 49.15841 | 3.01393 | 36145 ft | 438 kts | 229° |
| 2026-04-20 17:39 | 49.13170 | 2.97613 | 36143 ft | 438 kts | 229° |
| 2026-04-20 17:40 | 49.08971 | 2.91664 | 36141 ft | 438 kts | 229° |
| 2026-04-20 17:40 | 49.04490 | 2.85361 | 36145 ft | 438 kts | 229° |
| 2026-04-20 17:41 | 49.00003 | 2.79059 | 36150 ft | 438 kts | 229° |
| 2026-04-20 17:41 | 48.95523 | 2.72773 | 36155 ft | 438 kts | 228° |
| 2026-04-20 17:42 | 48.91034 | 2.66500 | 36158 ft | 438 kts | 228° |
| 2026-04-20 17:42 | 48.86547 | 2.60231 | 36158 ft | 438 kts | 228° |
| 2026-04-20 17:43 | 48.82062 | 2.53985 | 36138 ft | 437 kts | 228° |
| 2026-04-20 17:43 | 48.77585 | 2.47759 | 36139 ft | 437 kts | 228° |
| 2026-04-20 17:44 | 48.73103 | 2.41543 | 36136 ft | 437 kts | 227° |
| 2026-04-20 17:44 | 48.68616 | 2.35358 | 36139 ft | 436 kts | 227° |
| 2026-04-20 17:45 | 48.64124 | 2.29188 | 36145 ft | 436 kts | 227° |
| 2026-04-20 17:45 | 48.59614 | 2.23052 | 36141 ft | 438 kts | 223° |
| 2026-04-20 17:46 | 48.54242 | 2.18532 | 36130 ft | 451 kts | 204° |
| 2026-04-20 17:46 | 48.48074 | 2.16353 | 36107 ft | 456 kts | 197° |
| 2026-04-20 17:47 | 48.41870 | 2.14365 | 36104 ft | 456 kts | 197° |
| 2026-04-20 17:47 | 48.35674 | 2.12361 | 36096 ft | 455 kts | 198° |
| 2026-04-20 17:48 | 48.29445 | 2.10572 | 36096 ft | 460 kts | 190° |
| 2026-04-20 17:48 | 48.22992 | 2.11115 | 36094 ft | 469 kts | 177° |
| 2026-04-20 17:49 | 48.16530 | 2.12496 | 36089 ft | 469 kts | 177° |
| 2026-04-20 17:49 | 48.10116 | 2.12571 | 36087 ft | 456 kts | 193° |
| 2026-04-20 17:50 | 48.03825 | 2.11339 | 36092 ft | 456 kts | 193° |
| 2026-04-20 17:50 | 47.97533 | 2.10117 | 36097 ft | 456 kts | 193° |
| 2026-04-20 17:51 | 47.91236 | 2.08926 | 36095 ft | 456 kts | 193° |
| 2026-04-20 17:51 | 47.84937 | 2.07742 | 36097 ft | 456 kts | 193° |
| 2026-04-20 17:52 | 47.78642 | 2.06535 | 36086 ft | 456 kts | 194° |
| 2026-04-20 17:52 | 47.72353 | 2.05330 | 36079 ft | 455 kts | 193° |
| 2026-04-20 17:53 | 47.66070 | 2.04147 | 36067 ft | 455 kts | 194° |
| 2026-04-20 17:53 | 47.60084 | 2.01758 | 36053 ft | 441 kts | 208° |
| 2026-04-20 17:54 | 47.54377 | 1.98419 | 36048 ft | 441 kts | 207° |
| 2026-04-20 17:54 | 47.48657 | 1.95109 | 36035 ft | 441 kts | 207° |
| 2026-04-20 17:55 | 47.42942 | 1.91812 | 36044 ft | 441 kts | 207° |
| 2026-04-20 17:55 | 47.37239 | 1.88537 | 36044 ft | 441 kts | 207° |
| 2026-04-20 17:56 | 47.31519 | 1.85249 | 36038 ft | 440 kts | 207° |
| 2026-04-20 17:56 | 47.25812 | 1.81969 | 36034 ft | 440 kts | 207° |
| 2026-04-20 17:57 | 47.20101 | 1.78694 | 36033 ft | 440 kts | 207° |
| 2026-04-20 17:57 | 47.14377 | 1.75458 | 36029 ft | 441 kts | 207° |
| 2026-04-20 17:58 | 47.08645 | 1.72245 | 36031 ft | 441 kts | 207° |
| 2026-04-20 17:58 | 47.02917 | 1.69029 | 36031 ft | 441 kts | 207° |
| 2026-04-20 17:59 | 46.97187 | 1.65809 | 36036 ft | 441 kts | 207° |
| 2026-04-20 17:59 | 46.91459 | 1.62605 | 36038 ft | 441 kts | 207° |
| 2026-04-20 18:00 | 46.85724 | 1.59404 | 36037 ft | 441 kts | 207° |
| 2026-04-20 18:00 | 46.79954 | 1.56189 | 36037 ft | 441 kts | 207° |
| 2026-04-20 18:01 | 46.74218 | 1.53008 | 36036 ft | 441 kts | 207° |
| 2026-04-20 18:01 | 46.68481 | 1.49832 | 36025 ft | 441 kts | 207° |
| 2026-04-20 18:02 | 46.62746 | 1.46665 | 36019 ft | 441 kts | 207° |
| 2026-04-20 18:02 | 46.57044 | 1.43528 | 36020 ft | 441 kts | 207° |
| 2026-04-20 18:03 | 46.51271 | 1.40351 | 36016 ft | 441 kts | 207° |
| 2026-04-20 18:03 | 46.45569 | 1.37215 | 36014 ft | 441 kts | 207° |
| 2026-04-20 18:04 | 46.39802 | 1.34045 | 36010 ft | 441 kts | 207° |
| 2026-04-20 18:04 | 46.34063 | 1.30910 | 36009 ft | 441 kts | 207° |
| 2026-04-20 18:05 | 46.25449 | 1.26215 | 36005 ft | 441 kts | 207° |
| 2026-04-20 18:05 | 46.19704 | 1.23098 | 36000 ft | 441 kts | 207° |
| 2026-04-20 18:06 | 46.14933 | 1.20512 | 36001 ft | 441 kts | 207° |
| 2026-04-20 18:06 | 46.09200 | 1.17398 | 35995 ft | 441 kts | 207° |
| 2026-04-20 18:07 | 46.03460 | 1.14294 | 35984 ft | 441 kts | 206° |
| 2026-04-20 18:07 | 45.97711 | 1.11207 | 35992 ft | 441 kts | 206° |
| 2026-04-20 18:08 | 45.91965 | 1.08123 | 35994 ft | 441 kts | 206° |
| 2026-04-20 18:08 | 45.86226 | 1.05045 | 35991 ft | 440 kts | 206° |
| 2026-04-20 18:09 | 45.80752 | 1.01343 | 35986 ft | 429 kts | 220° |
| 2026-04-20 18:09 | 45.76157 | 0.96028 | 35980 ft | 424 kts | 225° |
| 2026-04-20 18:10 | 45.71634 | 0.90605 | 35975 ft | 424 kts | 225° |
| 2026-04-20 18:10 | 45.67100 | 0.85196 | 35964 ft | 424 kts | 225° |
| 2026-04-20 18:11 | 45.62564 | 0.79793 | 35954 ft | 424 kts | 225° |
| 2026-04-20 18:11 | 45.58031 | 0.74404 | 35945 ft | 424 kts | 225° |
| 2026-04-20 18:12 | 45.53490 | 0.69022 | 35941 ft | 424 kts | 225° |
| 2026-04-20 18:12 | 45.48956 | 0.63639 | 35935 ft | 424 kts | 225° |
| 2026-04-20 18:13 | 45.44419 | 0.58271 | 35927 ft | 424 kts | 225° |
| 2026-04-20 18:13 | 45.39876 | 0.52917 | 35923 ft | 424 kts | 225° |
| 2026-04-20 18:14 | 45.35328 | 0.47578 | 35921 ft | 424 kts | 225° |
| 2026-04-20 18:14 | 45.30777 | 0.42233 | 35919 ft | 424 kts | 225° |
| 2026-04-20 18:15 | 45.26226 | 0.36897 | 35919 ft | 424 kts | 225° |
| 2026-04-20 18:15 | 45.21668 | 0.31566 | 35918 ft | 424 kts | 224° |
| 2026-04-20 18:16 | 45.17104 | 0.26252 | 35915 ft | 424 kts | 224° |
| 2026-04-20 18:16 | 45.12541 | 0.20948 | 35914 ft | 424 kts | 224° |
| 2026-04-20 18:17 | 45.07975 | 0.15641 | 35915 ft | 425 kts | 224° |
| 2026-04-20 18:17 | 45.03401 | 0.10337 | 35918 ft | 425 kts | 224° |
| 2026-04-20 18:18 | 44.98827 | 0.05045 | 35916 ft | 425 kts | 224° |
| 2026-04-20 18:18 | 44.94251 | -0.00244 | 35912 ft | 425 kts | 224° |
| 2026-04-20 18:19 | 44.89669 | -0.05520 | 35926 ft | 425 kts | 224° |
| 2026-04-20 18:19 | 44.85077 | -0.10792 | 35918 ft | 425 kts | 224° |
| 2026-04-20 18:20 | 44.80489 | -0.16053 | 35918 ft | 425 kts | 224° |
| 2026-04-20 18:20 | 44.75900 | -0.21308 | 35922 ft | 425 kts | 223° |
| 2026-04-20 18:21 | 44.71300 | -0.26556 | 35921 ft | 426 kts | 223° |
| 2026-04-20 18:21 | 44.66696 | -0.31797 | 35920 ft | 426 kts | 223° |
| 2026-04-20 18:22 | 44.62000 | -0.36884 | 35923 ft | 428 kts | 220° |
| 2026-04-20 18:22 | 44.57070 | -0.41587 | 35926 ft | 429 kts | 218° |
| 2026-04-20 18:23 | 44.52087 | -0.46197 | 35917 ft | 429 kts | 218° |
| 2026-04-20 18:23 | 44.47149 | -0.50873 | 35918 ft | 429 kts | 218° |
| 2026-04-20 18:24 | 44.42195 | -0.55633 | 35925 ft | 429 kts | 219° |
| 2026-04-20 18:24 | 44.37283 | -0.60364 | 35921 ft | 429 kts | 218° |
| 2026-04-20 18:25 | 44.32355 | -0.65068 | 35924 ft | 429 kts | 218° |
| 2026-04-20 18:25 | 44.27417 | -0.69755 | 35924 ft | 429 kts | 218° |
| 2026-04-20 18:26 | 44.22579 | -0.74585 | 35926 ft | 427 kts | 220° |
| 2026-04-20 18:26 | 44.17815 | -0.79540 | 35926 ft | 427 kts | 220° |
| 2026-04-20 18:27 | 44.13040 | -0.84469 | 35663 ft | 429 kts | 220° |
| 2026-04-20 18:27 | 44.10638 | -0.86916 | 35211 ft | 428 kts | 220° |
| 2026-04-20 18:27 | 44.08228 | -0.89358 | 34760 ft | 428 kts | 220° |
| 2026-04-20 18:28 | 44.05816 | -0.91794 | 34319 ft | 429 kts | 220° |
| 2026-04-20 18:28 | 44.03394 | -0.94240 | 33880 ft | 430 kts | 220° |
| 2026-04-20 18:28 | 44.00971 | -0.96690 | 33393 ft | 432 kts | 220° |
| 2026-04-20 18:28 | 43.98544 | -0.99150 | 32869 ft | 433 kts | 220° |
| 2026-04-20 18:29 | 43.96108 | -1.01620 | 32410 ft | 434 kts | 220° |
| 2026-04-20 18:29 | 43.93665 | -1.04095 | 31932 ft | 435 kts | 220° |
| 2026-04-20 18:29 | 43.91214 | -1.06572 | 31470 ft | 437 kts | 220° |
| 2026-04-20 18:29 | 43.88751 | -1.09053 | 31009 ft | 438 kts | 220° |
| 2026-04-20 18:30 | 43.86280 | -1.11537 | 30557 ft | 439 kts | 220° |
| 2026-04-20 18:30 | 43.83801 | -1.14020 | 30115 ft | 441 kts | 219° |
| 2026-04-20 18:30 | 43.81314 | -1.16505 | 29612 ft | 442 kts | 219° |
| 2026-04-20 18:30 | 43.78824 | -1.18991 | 29113 ft | 440 kts | 219° |
| 2026-04-20 18:31 | 43.76349 | -1.21468 | 28612 ft | 438 kts | 219° |
| 2026-04-20 18:31 | 43.73890 | -1.23929 | 28123 ft | 435 kts | 219° |
| 2026-04-20 18:31 | 43.71443 | -1.26379 | 27638 ft | 433 kts | 219° |
| 2026-04-20 18:31 | 43.69015 | -1.28811 | 27167 ft | 430 kts | 219° |
| 2026-04-20 18:32 | 43.66599 | -1.31229 | 26707 ft | 427 kts | 219° |
| 2026-04-20 18:32 | 43.64172 | -1.33657 | 26238 ft | 439 kts | 219° |
| 2026-04-20 18:32 | 43.61668 | -1.36163 | 25806 ft | 449 kts | 219° |
| 2026-04-20 18:32 | 43.59120 | -1.38705 | 25364 ft | 453 kts | 219° |
| 2026-04-20 18:33 | 43.56555 | -1.41251 | 24930 ft | 456 kts | 218° |
| 2026-04-20 18:33 | 43.53971 | -1.43806 | 24496 ft | 458 kts | 218° |
| 2026-04-20 18:33 | 43.51375 | -1.46368 | 24070 ft | 460 kts | 218° |
| 2026-04-20 18:33 | 43.48778 | -1.48951 | 23654 ft | 461 kts | 220° |
| 2026-04-20 18:34 | 43.46433 | -1.51927 | 23178 ft | 458 kts | 230° |
| 2026-04-20 18:34 | 43.44536 | -1.55404 | 22692 ft | 450 kts | 238° |
| 2026-04-20 18:34 | 43.42814 | -1.58985 | 22215 ft | 448 kts | 238° |
| 2026-04-20 18:34 | 43.41090 | -1.62559 | 21738 ft | 449 kts | 238° |
| 2026-04-20 18:35 | 43.39360 | -1.66131 | 21273 ft | 450 kts | 238° |
| 2026-04-20 18:35 | 43.37637 | -1.69666 | 20810 ft | 439 kts | 238° |
| 2026-04-20 18:35 | 43.35956 | -1.73100 | 20358 ft | 428 kts | 238° |
| 2026-04-20 18:35 | 43.34312 | -1.76453 | 19907 ft | 418 kts | 238° |
| 2026-04-20 18:36 | 43.32708 | -1.79733 | 19473 ft | 409 kts | 238° |
| 2026-04-20 18:36 | 43.31061 | -1.82875 | 19046 ft | 402 kts | 231° |
| 2026-04-20 18:36 | 43.29094 | -1.85568 | 18616 ft | 398 kts | 224° |
| 2026-04-20 18:36 | 43.27054 | -1.88112 | 18188 ft | 395 kts | 224° |
| 2026-04-20 18:37 | 43.25028 | -1.90636 | 17711 ft | 392 kts | 224° |
| 2026-04-20 18:37 | 43.23022 | -1.93131 | 17240 ft | 387 kts | 224° |
| 2026-04-20 18:37 | 43.21043 | -1.95588 | 16767 ft | 381 kts | 224° |
| 2026-04-20 18:37 | 43.19093 | -1.98008 | 16290 ft | 376 kts | 224° |
| 2026-04-20 18:38 | 43.17161 | -2.00406 | 15769 ft | 374 kts | 224° |
| 2026-04-20 18:38 | 43.15238 | -2.02792 | 15242 ft | 372 kts | 224° |
| 2026-04-20 18:38 | 43.13327 | -2.05161 | 14699 ft | 371 kts | 224° |
| 2026-04-20 18:38 | 43.11413 | -2.07530 | 14158 ft | 370 kts | 224° |
| 2026-04-20 18:39 | 43.09507 | -2.09889 | 13591 ft | 369 kts | 224° |
| 2026-04-20 18:39 | 43.07605 | -2.12240 | 12963 ft | 368 kts | 224° |
| 2026-04-20 18:39 | 43.05711 | -2.14582 | 12358 ft | 366 kts | 224° |
| 2026-04-20 18:39 | 43.03827 | -2.16909 | 11743 ft | 364 kts | 224° |
| 2026-04-20 18:40 | 43.02030 | -2.19325 | 11122 ft | 361 kts | 234° |
| 2026-04-20 18:40 | 43.00977 | -2.22381 | 10565 ft | 355 kts | 259° |
| 2026-04-20 18:40 | 43.00983 | -2.25650 | 10417 ft | 339 kts | 282° |
| 2026-04-20 18:40 | 43.01897 | -2.28525 | 10287 ft | 326 kts | 304° |
| 2026-04-20 18:41 | 43.03373 | -2.30790 | 10163 ft | 312 kts | 311° |
| 2026-04-20 18:41 | 43.04846 | -2.32896 | 10059 ft | 300 kts | 311° |
| 2026-04-20 18:41 | 43.06266 | -2.34918 | 9929 ft | 290 kts | 311° |
| 2026-04-20 18:41 | 43.07646 | -2.36885 | 9586 ft | 285 kts | 311° |
| 2026-04-20 18:42 | 43.09016 | -2.38846 | 9181 ft | 283 kts | 311° |
| 2026-04-20 18:42 | 43.10376 | -2.40795 | 8526 ft | 284 kts | 312° |
| 2026-04-20 18:42 | 43.11743 | -2.42754 | 7777 ft | 285 kts | 312° |
| 2026-04-20 18:42 | 43.12991 | -2.44827 | 7197 ft | 278 kts | 301° |
| 2026-04-20 18:43 | 43.13885 | -2.47072 | 6995 ft | 259 kts | 295° |
| 2026-04-20 18:43 | 43.14647 | -2.49201 | 6872 ft | 242 kts | 296° |
| 2026-04-20 18:43 | 43.15400 | -2.51252 | 6808 ft | 242 kts | 296° |
| 2026-04-20 18:43 | 43.16162 | -2.53299 | 6601 ft | 241 kts | 296° |
| 2026-04-20 18:44 | 43.16921 | -2.55339 | 6295 ft | 240 kts | 296° |
| 2026-04-20 18:44 | 43.17678 | -2.57378 | 5938 ft | 240 kts | 296° |
| 2026-04-20 18:44 | 43.18433 | -2.59412 | 5587 ft | 239 kts | 296° |
| 2026-04-20 18:44 | 43.19188 | -2.61447 | 5237 ft | 239 kts | 297° |
| 2026-04-20 18:45 | 43.19942 | -2.63482 | 4887 ft | 240 kts | 297° |
| 2026-04-20 18:45 | 43.20454 | -2.64863 | 4647 ft | 240 kts | 297° |
| 2026-04-20 18:45 | 43.21210 | -2.66905 | 4291 ft | 241 kts | 297° |
| 2026-04-20 18:45 | 43.21973 | -2.68968 | 3925 ft | 243 kts | 297° |
| 2026-04-20 18:46 | 43.22739 | -2.71040 | 3571 ft | 245 kts | 297° |
| 2026-04-20 18:46 | 43.23511 | -2.73131 | 3212 ft | 246 kts | 297° |
| 2026-04-20 18:46 | 43.24274 | -2.75198 | 2845 ft | 239 kts | 297° |
| 2026-04-20 18:46 | 43.25004 | -2.77179 | 2502 ft | 227 kts | 298° |
| 2026-04-20 18:47 | 43.25700 | -2.79066 | 2187 ft | 213 kts | 297° |
| 2026-04-20 18:47 | 43.26335 | -2.80792 | 1868 ft | 193 kts | 298° |
| 2026-04-20 18:47 | 43.26917 | -2.82371 | 1594 ft | 178 kts | 297° |
| 2026-04-20 18:47 | 43.27449 | -2.83818 | 1336 ft | 162 kts | 297° |
| 2026-04-20 18:48 | 43.27937 | -2.85142 | 1113 ft | 149 kts | 296° |
| 2026-04-20 18:48 | 43.28389 | -2.86372 | 870 ft | 140 kts | 295° |
| 2026-04-20 18:48 | 43.28824 | -2.87556 | 644 ft | 137 kts | 296° |
| 2026-04-20 18:48 | 43.29249 | -2.88711 | 424 ft | 135 kts | 295° |
| 2026-04-20 18:49 | 43.29667 | -2.89851 | 220 ft | 133 kts | 296° |
| 2026-04-20 18:49 | 43.30075 | -2.90956 | 132 ft | 119 kts | 296° |
| 2026-04-20 18:49 | 43.30372 | -2.91773 | 133 ft | 71 kts | 296° |
| 2026-04-20 18:49 | 43.30518 | -2.92166 | 132 ft | 27 kts | 297° |
| 2026-04-20 18:50 | 43.30599 | -2.92380 | 133 ft | 24 kts | 298° |
| 2026-04-20 18:50 | 43.30705 | -2.92489 | 133 ft | 19 kts | 345° |
| 2026-04-20 18:50 | 43.30802 | -2.92461 | 132 ft | 15 kts | 82° |
| 2026-04-20 18:50 | 43.30765 | -2.92339 | 132 ft | 13 kts | 117° |
| 2026-04-20 18:51 | 43.30726 | -2.92234 | 132 ft | 12 kts | 116° |
| 2026-04-20 18:51 | 43.30688 | -2.92132 | 132 ft | 14 kts | 117° |
| 2026-04-20 18:51 | 43.30639 | -2.91997 | 132 ft | 18 kts | 117° |
| 2026-04-20 18:51 | 43.30576 | -2.91824 | 132 ft | 22 kts | 116° |
| 2026-04-20 18:52 | 43.30503 | -2.91626 | 132 ft | 24 kts | 116° |
| 2026-04-20 18:52 | 43.30448 | -2.91476 | 132 ft | 15 kts | 116° |
| 2026-04-20 18:52 | 43.30403 | -2.91353 | 132 ft | 14 kts | 117° |
| 2026-04-20 18:52 | 43.30363 | -2.91242 | 132 ft | 12 kts | 117° |
| 2026-04-20 18:53 | 43.30325 | -2.91140 | 132 ft | 13 kts | 116° |
| 2026-04-20 18:53 | 43.30331 | -2.91020 | 132 ft | 15 kts | 29° |
| 2026-04-20 18:53 | 43.30414 | -2.90926 | 132 ft | 17 kts | 79° |
| 2026-04-20 18:53 | 43.30394 | -2.90766 | 132 ft | 14 kts | 115° |
| 2026-04-20 18:54 | 43.30379 | -2.90661 | 132 ft | 9 kts | 41° |
| 2026-04-20 18:54 | 43.30429 | -2.90633 | 132 ft | 0 kts | 26° |
| 2026-04-20 18:55 | 43.30428 | -2.90634 | 132 ft | 0 kts | 26° |